Terminal Aerodrome Forecast
Issued by NWS Memphis, TN

Home | Current Version | Previous Version | Text Only | Print | Product List | Glossary On
Versions: 1 2 3 4 5 6 7 8 9 10 11 12 13 14 15 16 17 18 19 20 21 22 23 24 25 26 27 28 29 30 31 32 33
000
FTUS44 KMEG 041734
TAFMEM
TAF
KMEM 041734Z 0418/0518 36015G20KT 4SM -RA BR OVC005
      TEMPO 0419/0422 1SM -RA BR
     FM050000 02020G30KT 2SM -FZRAPL BR OVC009
     FM050300 02020G30KT 1SM PL BR OVC009
      TEMPO 0509/0512 1/2SM SN FG OVC003
     FM051200 01016G26KT 1/2SM SN FG OVC003
     FM051400 01015G25KT 3SM -SN OVC007
     FM051600 01012G20KT P6SM -SN OVC012=

USA.gov is the U.S. government's official web portal to all federal, state and local government web resources and services.